sensor_id;sensor_type;location;lat;lon;timestamp;temperature;humidity
23124;DHT22;11731;48.592;8.858;2023-03-01T00:00:17;0.60;99.30
23124;DHT22;11731;48.592;8.858;2023-03-01T00:02:44;0.60;99.50
23124;DHT22;11731;48.592;8.858;2023-03-01T00:05:11;0.60;99.50
23124;DHT22;11731;48.592;8.858;2023-03-01T00:07:47;0.30;99.90
23124;DHT22;11731;48.592;8.858;2023-03-01T00:10:16;0.20;99.90
23124;DHT22;11731;48.592;8.858;2023-03-01T00:12:43;0.10;99.90
23124;DHT22;11731;48.592;8.858;2023-03-01T00:15:10;0.20;99.90
23124;DHT22;11731;48.592;8.858;2023-03-01T00:17:37;0.20;99.90
23124;DHT22;11731;48.592;8.858;2023-03-01T00:20:05;0.30;99.90
23124;DHT22;11731;48.592;8.858;2023-03-01T00:22:33;0.50;99.90
23124;DHT22;11731;48.592;8.858;2023-03-01T00:25:00;0.60;99.60
23124;DHT22;11731;48.592;8.858;2023-03-01T00:27:28;0.80;99.20
23124;DHT22;11731;48.592;8.858;2023-03-01T00:29:55;0.90;99.10
23124;DHT22;11731;48.592;8.858;2023-03-01T00:32:22;0.90;98.80
23124;DHT22;11731;48.592;8.858;2023-03-01T00:34:49;0.90;98.60
23124;DHT22;11731;48.592;8.858;2023-03-01T00:37:20;0.70;99.00
23124;DHT22;11731;48.592;8.858;2023-03-01T00:39:47;0.50;99.30
23124;DHT22;11731;48.592;8.858;2023-03-01T00:42:25;0.60;99.20
23124;DHT22;11731;48.592;8.858;2023-03-01T00:44:54;0.50;98.90
23124;DHT22;11731;48.592;8.858;2023-03-01T00:47:20;0.00;99.90
23124;DHT22;11731;48.592;8.858;2023-03-01T00:53:09;0.10;99.90
23124;DHT22;11731;48.592;8.858;2023-03-01T00:55:36;0.10;99.90
23124;DHT22;11731;48.592;8.858;2023-03-01T00:58:03;-0.10;99.90
23124;DHT22;11731;48.592;8.858;2023-03-01T01:00:31;-0.50;99.90
23124;DHT22;11731;48.592;8.858;2023-03-01T01:02:59;-0.40;99.90
23124;DHT22;11731;48.592;8.858;2023-03-01T01:05:26;-0.30;99.90
23124;DHT22;11731;48.592;8.858;2023-03-01T01:07:53;0.10;99.90
23124;DHT22;11731;48.592;8.858;2023-03-01T01:10:20;0.40;99.90
23124;DHT22;11731;48.592;8.858;2023-03-01T01:12:46;0.40;99.50
23124;DHT22;11731;48.592;8.858;2023-03-01T01:18:38;0.20;99.90
23124;DHT22;11731;48.592;8.858;2023-03-01T01:21:40;0.30;99.30
23124;DHT22;11731;48.592;8.858;2023-03-01T01:23:58;0.30;99.70
23124;DHT22;11731;48.592;8.858;2023-03-01T01:26:27;0.00;99.90
23124;DHT22;11731;48.592;8.858;2023-03-01T01:28:55;-0.30;99.90
23124;DHT22;11731;48.592;8.858;2023-03-01T01:31:22;-0.30;99.90
23124;DHT22;11731;48.592;8.858;2023-03-01T01:33:51;-0.40;99.90
23124;DHT22;11731;48.592;8.858;2023-03-01T01:36:18;-0.50;99.90
23124;DHT22;11731;48.592;8.858;2023-03-01T01:38:45;-0.50;99.90
23124;DHT22;11731;48.592;8.858;2023-03-01T01:41:13;-0.60;99.90
23124;DHT22;11731;48.592;8.858;2023-03-01T01:43:41;-0.70;99.90
23124;DHT22;11731;48.592;8.858;2023-03-01T01:46:19;-0.70;99.90
23124;DHT22;11731;48.592;8.858;2023-03-01T01:49:26;-0.60;99.90
23124;DHT22;11731;48.592;8.858;2023-03-01T01:52:00;-0.60;99.90
23124;DHT22;11731;48.592;8.858;2023-03-01T01:54:34;-0.60;99.90
23124;DHT22;11731;48.592;8.858;2023-03-01T01:57:10;-0.50;99.90
23124;DHT22;11731;48.592;8.858;2023-03-01T01:59:39;-0.70;99.90
23124;DHT22;11731;48.592;8.858;2023-03-01T02:02:07;-0.90;99.90
23124;DHT22;11731;48.592;8.858;2023-03-01T02:04:36;-0.70;99.90
23124;DHT22;11731;48.592;8.858;2023-03-01T02:07:27;-0.80;99.90
23124;DHT22;11731;48.592;8.858;2023-03-01T02:09:54;-1.00;99.90
23124;DHT22;11731;48.592;8.858;2023-03-01T02:12:24;-1.10;99.90
23124;DHT22;11731;48.592;8.858;2023-03-01T02:14:51;-1.00;99.90
23124;DHT22;11731;48.592;8.858;2023-03-01T02:17:18;-1.10;99.90
23124;DHT22;11731;48.592;8.858;2023-03-01T02:19:59;-1.20;99.90
23124;DHT22;11731;48.592;8.858;2023-03-01T02:22:30;-1.20;99.90
23124;DHT22;11731;48.592;8.858;2023-03-01T02:25:07;-1.30;99.90
23124;DHT22;11731;48.592;8.858;2023-03-01T02:27:48;-1.40;99.90
23124;DHT22;11731;48.592;8.858;2023-03-01T02:30:18;-1.50;99.90
23124;DHT22;11731;48.592;8.858;2023-03-01T02:32:46;-1.40;99.90
23124;DHT22;11731;48.592;8.858;2023-03-01T02:35:14;-1.20;99.90
23124;DHT22;11731;48.592;8.858;2023-03-01T02:37:43;-1.40;99.90
23124;DHT22;11731;48.592;8.858;2023-03-01T02:40:14;-1.30;99.90
23124;DHT22;11731;48.592;8.858;2023-03-01T02:42:49;-1.30;99.90
23124;DHT22;11731;48.592;8.858;2023-03-01T02:45:36;-1.10;99.90
23124;DHT22;11731;48.592;8.858;2023-03-01T02:48:04;-1.00;99.90
23124;DHT22;11731;48.592;8.858;2023-03-01T02:50:51;-0.70;99.90
23124;DHT22;11731;48.592;8.858;2023-03-01T02:53:25;-0.60;99.90
23124;DHT22;11731;48.592;8.858;2023-03-01T02:55:54;-0.60;99.90
23124;DHT22;11731;48.592;8.858;2023-03-01T02:58:21;-0.50;99.90
23124;DHT22;11731;48.592;8.858;2023-03-01T03:00:50;-0.60;99.90
23124;DHT22;11731;48.592;8.858;2023-03-01T03:03:34;-0.80;99.90
23124;DHT22;11731;48.592;8.858;2023-03-01T03:06:01;-0.90;99.90
23124;DHT22;11731;48.592;8.858;2023-03-01T03:08:28;-0.70;99.90
23124;DHT22;11731;48.592;8.858;2023-03-01T03:10:55;-0.40;99.90
23124;DHT22;11731;48.592;8.858;2023-03-01T03:13:21;-0.50;99.90
23124;DHT22;11731;48.592;8.858;2023-03-01T03:15:55;-0.30;99.90
23124;DHT22;11731;48.592;8.858;2023-03-01T03:18:23;-0.40;99.90
23124;DHT22;11731;48.592;8.858;2023-03-01T03:20:52;-0.30;99.90
23124;DHT22;11731;48.592;8.858;2023-03-01T03:23:20;-0.10;99.90
23124;DHT22;11731;48.592;8.858;2023-03-01T03:25:48;-0.10;99.90
23124;DHT22;11731;48.592;8.858;2023-03-01T03:28:16;-0.40;99.90
23124;DHT22;11731;48.592;8.858;2023-03-01T03:30:43;-0.40;99.90
23124;DHT22;11731;48.592;8.858;2023-03-01T03:33:12;-0.40;99.90
23124;DHT22;11731;48.592;8.858;2023-03-01T03:42:31;-0.10;99.90
23124;DHT22;11731;48.592;8.858;2023-03-01T03:44:58;0.00;99.90
23124;DHT22;11731;48.592;8.858;2023-03-01T03:47:25;0.00;99.90
23124;DHT22;11731;48.592;8.858;2023-03-01T03:50:09;0.00;99.90
23124;DHT22;11731;48.592;8.858;2023-03-01T03:52:36;0.20;99.90
23124;DHT22;11731;48.592;8.858;2023-03-01T03:55:04;0.20;99.90
23124;DHT22;11731;48.592;8.858;2023-03-01T03:57:34;0.30;99.90
23124;DHT22;11731;48.592;8.858;2023-03-01T04:00:02;0.30;99.90
23124;DHT22;11731;48.592;8.858;2023-03-01T04:02:31;0.30;99.90
23124;DHT22;11731;48.592;8.858;2023-03-01T04:04:58;0.60;99.90
23124;DHT22;11731;48.592;8.858;2023-03-01T04:07:26;0.70;99.90
23124;DHT22;11731;48.592;8.858;2023-03-01T04:09:53;0.80;99.90
23124;DHT22;11731;48.592;8.858;2023-03-01T04:12:34;0.30;99.90
23124;DHT22;11731;48.592;8.858;2023-03-01T04:15:01;0.40;99.90
23124;DHT22;11731;48.592;8.858;2023-03-01T04:17:38;0.60;99.90
23124;DHT22;11731;48.592;8.858;2023-03-01T04:20:06;0.60;99.90
23124;DHT22;11731;48.592;8.858;2023-03-01T04:22:35;0.80;99.90
23124;DHT22;11731;48.592;8.858;2023-03-01T04:25:02;0.70;99.90
23124;DHT22;11731;48.592;8.858;2023-03-01T04:27:32;0.30;99.90
23124;DHT22;11731;48.592;8.858;2023-03-01T04:29:58;0.20;99.90
23124;DHT22;11731;48.592;8.858;2023-03-01T04:32:25;0.30;99.90
23124;DHT22;11731;48.592;8.858;2023-03-01T04:34:52;0.40;99.90
23124;DHT22;11731;48.592;8.858;2023-03-01T04:37:19;0.70;99.90
23124;DHT22;11731;48.592;8.858;2023-03-01T04:39:47;0.60;99.90
23124;DHT22;11731;48.592;8.858;2023-03-01T04:42:28;0.30;99.90
23124;DHT22;11731;48.592;8.858;2023-03-01T04:44:55;0.30;99.90
23124;DHT22;11731;48.592;8.858;2023-03-01T04:47:22;0.20;99.90
23124;DHT22;11731;48.592;8.858;2023-03-01T04:49:49;0.30;99.90
23124;DHT22;11731;48.592;8.858;2023-03-01T04:52:17;0.20;99.90
23124;DHT22;11731;48.592;8.858;2023-03-01T04:54:44;0.20;99.90
23124;DHT22;11731;48.592;8.858;2023-03-01T04:57:12;0.40;99.90
23124;DHT22;11731;48.592;8.858;2023-03-01T04:59:39;0.50;99.90
23124;DHT22;11731;48.592;8.858;2023-03-01T05:02:12;0.60;99.90
23124;DHT22;11731;48.592;8.858;2023-03-01T05:05:01;0.70;99.90
23124;DHT22;11731;48.592;8.858;2023-03-01T05:07:28;0.70;99.90
23124;DHT22;11731;48.592;8.858;2023-03-01T05:09:55;0.70;99.90
23124;DHT22;11731;48.592;8.858;2023-03-01T05:12:25;0.70;99.90
23124;DHT22;11731;48.592;8.858;2023-03-01T05:14:52;0.80;99.90
23124;DHT22;11731;48.592;8.858;2023-03-01T05:17:21;0.50;99.90
23124;DHT22;11731;48.592;8.858;2023-03-01T05:20:02;0.40;99.90
23124;DHT22;11731;48.592;8.858;2023-03-01T05:22:32;0.50;99.90
23124;DHT22;11731;48.592;8.858;2023-03-01T05:24:59;0.60;99.90
23124;DHT22;11731;48.592;8.858;2023-03-01T05:27:27;0.50;99.90
23124;DHT22;11731;48.592;8.858;2023-03-01T05:29:55;0.70;99.90
23124;DHT22;11731;48.592;8.858;2023-03-01T05:32:22;0.80;99.90
23124;DHT22;11731;48.592;8.858;2023-03-01T05:34:48;0.90;99.90
23124;DHT22;11731;48.592;8.858;2023-03-01T05:37:17;1.00;99.90
23124;DHT22;11731;48.592;8.858;2023-03-01T05:39:45;0.90;99.90
23124;DHT22;11731;48.592;8.858;2023-03-01T05:42:11;0.70;99.90
23124;DHT22;11731;48.592;8.858;2023-03-01T05:44:40;0.70;99.90
23124;DHT22;11731;48.592;8.858;2023-03-01T05:47:06;0.60;99.90
23124;DHT22;11731;48.592;8.858;2023-03-01T05:49:36;0.70;99.90
23124;DHT22;11731;48.592;8.858;2023-03-01T05:52:24;0.90;99.90
23124;DHT22;11731;48.592;8.858;2023-03-01T05:54:51;1.00;99.90
23124;DHT22;11731;48.592;8.858;2023-03-01T05:57:17;0.90;99.90
23124;DHT22;11731;48.592;8.858;2023-03-01T05:59:46;0.90;99.90
23124;DHT22;11731;48.592;8.858;2023-03-01T06:02:13;0.80;99.90
23124;DHT22;11731;48.592;8.858;2023-03-01T06:04:40;1.00;99.90
23124;DHT22;11731;48.592;8.858;2023-03-01T06:07:07;1.00;99.90
23124;DHT22;11731;48.592;8.858;2023-03-01T06:09:34;1.00;99.90
23124;DHT22;11731;48.592;8.858;2023-03-01T06:12:01;1.10;99.90
23124;DHT22;11731;48.592;8.858;2023-03-01T06:14:28;1.10;99.90
23124;DHT22;11731;48.592;8.858;2023-03-01T06:16:56;1.20;99.90
23124;DHT22;11731;48.592;8.858;2023-03-01T06:19:23;1.00;99.90
23124;DHT22;11731;48.592;8.858;2023-03-01T06:21:49;1.10;99.90
23124;DHT22;11731;48.592;8.858;2023-03-01T06:24:16;1.10;99.90
23124;DHT22;11731;48.592;8.858;2023-03-01T06:26:43;0.80;99.90
23124;DHT22;11731;48.592;8.858;2023-03-01T06:29:10;0.90;99.90
23124;DHT22;11731;48.592;8.858;2023-03-01T06:31:37;0.90;99.90
23124;DHT22;11731;48.592;8.858;2023-03-01T06:34:05;1.10;99.90
23124;DHT22;11731;48.592;8.858;2023-03-01T06:36:32;1.20;99.90
23124;DHT22;11731;48.592;8.858;2023-03-01T06:38:59;1.40;99.90
23124;DHT22;11731;48.592;8.858;2023-03-01T06:41:25;1.30;99.90
23124;DHT22;11731;48.592;8.858;2023-03-01T06:43:53;1.50;99.90
23124;DHT22;11731;48.592;8.858;2023-03-01T06:46:20;1.10;99.90
23124;DHT22;11731;48.592;8.858;2023-03-01T06:48:47;1.20;99.90
23124;DHT22;11731;48.592;8.858;2023-03-01T06:51:15;1.20;99.90
23124;DHT22;11731;48.592;8.858;2023-03-01T06:53:42;1.30;99.90
23124;DHT22;11731;48.592;8.858;2023-03-01T06:56:09;1.50;99.90
23124;DHT22;11731;48.592;8.858;2023-03-01T06:58:36;1.50;99.90
23124;DHT22;11731;48.592;8.858;2023-03-01T07:01:05;1.50;99.90
23124;DHT22;11731;48.592;8.858;2023-03-01T07:03:32;1.70;99.90
23124;DHT22;11731;48.592;8.858;2023-03-01T07:05:59;2.00;99.90
23124;DHT22;11731;48.592;8.858;2023-03-01T07:08:27;2.00;99.90
23124;DHT22;11731;48.592;8.858;2023-03-01T07:10:57;1.70;99.90
23124;DHT22;11731;48.592;8.858;2023-03-01T07:13:24;1.60;99.90
23124;DHT22;11731;48.592;8.858;2023-03-01T07:15:51;1.40;99.90
23124;DHT22;11731;48.592;8.858;2023-03-01T07:18:18;1.30;99.90
23124;DHT22;11731;48.592;8.858;2023-03-01T07:20:45;1.40;99.90
23124;DHT22;11731;48.592;8.858;2023-03-01T07:23:11;1.50;99.90
23124;DHT22;11731;48.592;8.858;2023-03-01T07:25:40;1.80;99.90
23124;DHT22;11731;48.592;8.858;2023-03-01T07:28:07;1.70;99.90
23124;DHT22;11731;48.592;8.858;2023-03-01T07:30:33;1.00;99.90
23124;DHT22;11731;48.592;8.858;2023-03-01T07:33:00;1.10;99.90
23124;DHT22;11731;48.592;8.858;2023-03-01T07:35:27;1.10;99.90
23124;DHT22;11731;48.592;8.858;2023-03-01T07:37:54;0.90;99.90
23124;DHT22;11731;48.592;8.858;2023-03-01T07:40:22;1.10;99.90
23124;DHT22;11731;48.592;8.858;2023-03-01T07:42:55;1.20;99.90
23124;DHT22;11731;48.592;8.858;2023-03-01T07:45:22;1.50;99.90
23124;DHT22;11731;48.592;8.858;2023-03-01T07:47:50;1.50;99.90
23124;DHT22;11731;48.592;8.858;2023-03-01T07:50:17;1.40;99.90
23124;DHT22;11731;48.592;8.858;2023-03-01T07:52:49;1.40;99.90
23124;DHT22;11731;48.592;8.858;2023-03-01T07:55:16;1.40;99.90
23124;DHT22;11731;48.592;8.858;2023-03-01T07:57:43;1.30;99.90
23124;DHT22;11731;48.592;8.858;2023-03-01T08:00:13;1.40;99.90
23124;DHT22;11731;48.592;8.858;2023-03-01T08:02:40;1.40;99.90
23124;DHT22;11731;48.592;8.858;2023-03-01T08:05:08;1.50;99.90
23124;DHT22;11731;48.592;8.858;2023-03-01T08:07:35;1.30;99.90
23124;DHT22;11731;48.592;8.858;2023-03-01T08:10:06;1.50;99.90
23124;DHT22;11731;48.592;8.858;2023-03-01T08:12:33;1.50;99.90
23124;DHT22;11731;48.592;8.858;2023-03-01T08:15:06;1.60;99.90
23124;DHT22;11731;48.592;8.858;2023-03-01T08:17:39;1.70;99.90
23124;DHT22;11731;48.592;8.858;2023-03-01T08:20:10;1.90;99.80
23124;DHT22;11731;48.592;8.858;2023-03-01T08:22:38;2.20;99.90
23124;DHT22;11731;48.592;8.858;2023-03-01T08:25:05;2.30;99.60
23124;DHT22;11731;48.592;8.858;2023-03-01T08:27:32;2.20;99.80
23124;DHT22;11731;48.592;8.858;2023-03-01T08:29:59;2.00;99.20
23124;DHT22;11731;48.592;8.858;2023-03-01T08:32:28;1.90;99.90
23124;DHT22;11731;48.592;8.858;2023-03-01T08:34:57;1.80;99.80
23124;DHT22;11731;48.592;8.858;2023-03-01T08:37:24;1.90;99.90
23124;DHT22;11731;48.592;8.858;2023-03-01T08:39:51;2.10;99.90
23124;DHT22;11731;48.592;8.858;2023-03-01T08:42:20;2.40;99.50
23124;DHT22;11731;48.592;8.858;2023-03-01T08:44:47;2.40;99.20
23124;DHT22;11731;48.592;8.858;2023-03-01T08:47:15;2.40;99.60
23124;DHT22;11731;48.592;8.858;2023-03-01T08:49:42;2.60;99.30
23124;DHT22;11731;48.592;8.858;2023-03-01T08:52:10;2.80;99.20
23124;DHT22;11731;48.592;8.858;2023-03-01T08:54:37;2.80;99.10
23124;DHT22;11731;48.592;8.858;2023-03-01T08:57:04;3.00;98.90
23124;DHT22;11731;48.592;8.858;2023-03-01T08:59:31;2.90;98.90
23124;DHT22;11731;48.592;8.858;2023-03-01T09:02:02;2.80;98.50
23124;DHT22;11731;48.592;8.858;2023-03-01T09:04:29;3.30;98.30
23124;DHT22;11731;48.592;8.858;2023-03-01T09:06:56;3.20;97.90
23124;DHT22;11731;48.592;8.858;2023-03-01T09:09:24;3.10;97.50
23124;DHT22;11731;48.592;8.858;2023-03-01T09:11:51;3.00;97.30
23124;DHT22;11731;48.592;8.858;2023-03-01T09:14:18;3.20;97.10
23124;DHT22;11731;48.592;8.858;2023-03-01T09:16:45;3.20;97.20
23124;DHT22;11731;48.592;8.858;2023-03-01T09:19:13;3.40;97.10
23124;DHT22;11731;48.592;8.858;2023-03-01T09:21:40;3.70;96.80
23124;DHT22;11731;48.592;8.858;2023-03-01T09:24:18;4.00;96.40
23124;DHT22;11731;48.592;8.858;2023-03-01T09:26:47;3.80;96.20
23124;DHT22;11731;48.592;8.858;2023-03-01T09:29:15;3.40;96.00
23124;DHT22;11731;48.592;8.858;2023-03-01T09:31:42;3.30;96.90
23124;DHT22;11731;48.592;8.858;2023-03-01T09:34:09;3.60;96.20
23124;DHT22;11731;48.592;8.858;2023-03-01T09:36:39;3.60;96.40
23124;DHT22;11731;48.592;8.858;2023-03-01T09:39:07;3.70;96.80
23124;DHT22;11731;48.592;8.858;2023-03-01T09:48:22;4.00;96.20
23124;DHT22;11731;48.592;8.858;2023-03-01T09:50:51;4.00;95.60
23124;DHT22;11731;48.592;8.858;2023-03-01T09:53:20;4.00;96.00
23124;DHT22;11731;48.592;8.858;2023-03-01T09:55:59;4.10;96.20
23124;DHT22;11731;48.592;8.858;2023-03-01T09:58:37;3.90;96.00
23124;DHT22;11731;48.592;8.858;2023-03-01T10:01:20;3.70;96.50
23124;DHT22;11731;48.592;8.858;2023-03-01T10:04:00;3.90;96.50
23124;DHT22;11731;48.592;8.858;2023-03-01T10:06:33;4.20;96.30
23124;DHT22;11731;48.592;8.858;2023-03-01T10:09:03;4.50;95.40
23124;DHT22;11731;48.592;8.858;2023-03-01T10:11:35;4.70;95.10
23124;DHT22;11731;48.592;8.858;2023-03-01T10:14:12;4.90;94.80
23124;DHT22;11731;48.592;8.858;2023-03-01T10:16:48;4.80;94.90
23124;DHT22;11731;48.592;8.858;2023-03-01T10:19:22;4.50;95.00
23124;DHT22;11731;48.592;8.858;2023-03-01T10:21:51;4.00;95.40
23124;DHT22;11731;48.592;8.858;2023-03-01T10:24:19;4.20;95.70
23124;DHT22;11731;48.592;8.858;2023-03-01T10:26:54;4.50;94.80
23124;DHT22;11731;48.592;8.858;2023-03-01T10:29:27;5.00;95.10
23124;DHT22;11731;48.592;8.858;2023-03-01T10:31:57;5.10;94.40
23124;DHT22;11731;48.592;8.858;2023-03-01T10:34:29;4.80;94.60
23124;DHT22;11731;48.592;8.858;2023-03-01T10:37:01;4.80;94.90
23124;DHT22;11731;48.592;8.858;2023-03-01T10:39:28;4.80;94.90
23124;DHT22;11731;48.592;8.858;2023-03-01T10:41:58;4.80;94.50
23124;DHT22;11731;48.592;8.858;2023-03-01T10:44:43;5.00;94.60
23124;DHT22;11731;48.592;8.858;2023-03-01T10:47:16;5.30;94.40
23124;DHT22;11731;48.592;8.858;2023-03-01T10:50:01;5.40;94.00
23124;DHT22;11731;48.592;8.858;2023-03-01T10:54:13;5.60;93.50
23124;DHT22;11731;48.592;8.858;2023-03-01T11:02:31;5.90;93.60
23124;DHT22;11731;48.592;8.858;2023-03-01T11:05:18;5.90;93.50
23124;DHT22;11731;48.592;8.858;2023-03-01T11:07:50;5.90;93.40
23124;DHT22;11731;48.592;8.858;2023-03-01T11:10:22;5.60;93.30
23124;DHT22;11731;48.592;8.858;2023-03-01T11:13:16;5.60;93.80
23124;DHT22;11731;48.592;8.858;2023-03-01T11:16:11;5.20;93.60
23124;DHT22;11731;48.592;8.858;2023-03-01T11:18:41;5.30;94.10
23124;DHT22;11731;48.592;8.858;2023-03-01T11:21:12;5.60;93.60
23124;DHT22;11731;48.592;8.858;2023-03-01T11:23:46;5.50;93.80
23124;DHT22;11731;48.592;8.858;2023-03-01T11:26:15;5.50;93.80
23124;DHT22;11731;48.592;8.858;2023-03-01T11:28:47;5.60;93.70
23124;DHT22;11731;48.592;8.858;2023-03-01T11:31:15;5.70;93.50
23124;DHT22;11731;48.592;8.858;2023-03-01T11:33:59;5.70;93.60
23124;DHT22;11731;48.592;8.858;2023-03-01T11:36:34;5.60;93.50
23124;DHT22;11731;48.592;8.858;2023-03-01T11:39:05;5.40;93.50
23124;DHT22;11731;48.592;8.858;2023-03-01T11:41:40;5.50;93.90
23124;DHT22;11731;48.592;8.858;2023-03-01T11:44:14;5.60;93.30
23124;DHT22;11731;48.592;8.858;2023-03-01T11:46:50;5.90;93.50
23124;DHT22;11731;48.592;8.858;2023-03-01T11:49:46;5.90;93.20
23124;DHT22;11731;48.592;8.858;2023-03-01T11:52:25;5.40;93.70
23124;DHT22;11731;48.592;8.858;2023-03-01T11:55:12;5.50;94.00
23124;DHT22;11731;48.592;8.858;2023-03-01T11:57:55;5.40;94.00
23124;DHT22;11731;48.592;8.858;2023-03-01T12:00:40;5.60;94.10
23124;DHT22;11731;48.592;8.858;2023-03-01T12:03:26;6.00;93.50
23124;DHT22;11731;48.592;8.858;2023-03-01T12:06:18;6.40;93.30
23124;DHT22;11731;48.592;8.858;2023-03-01T12:08:59;6.50;92.80
23124;DHT22;11731;48.592;8.858;2023-03-01T12:11:36;6.20;92.80
23124;DHT22;11731;48.592;8.858;2023-03-01T12:14:37;6.40;93.40
23124;DHT22;11731;48.592;8.858;2023-03-01T12:20:14;6.50;92.70
23124;DHT22;11731;48.592;8.858;2023-03-01T12:22:55;6.60;92.70
23124;DHT22;11731;48.592;8.858;2023-03-01T12:25:35;6.30;93.30
23124;DHT22;11731;48.592;8.858;2023-03-01T12:28:32;6.20;93.20
23124;DHT22;11731;48.592;8.858;2023-03-01T12:31:29;6.10;93.30
23124;DHT22;11731;48.592;8.858;2023-03-01T12:34:03;6.50;92.90
23124;DHT22;11731;48.592;8.858;2023-03-01T12:36:51;6.70;92.70
23124;DHT22;11731;48.592;8.858;2023-03-01T12:39:36;6.60;92.70
23124;DHT22;11731;48.592;8.858;2023-03-01T12:42:11;6.70;92.70
23124;DHT22;11731;48.592;8.858;2023-03-01T12:44:57;6.90;92.40
23124;DHT22;11731;48.592;8.858;2023-03-01T12:47:40;6.70;92.50
23124;DHT22;11731;48.592;8.858;2023-03-01T12:50:15;6.70;92.50
23124;DHT22;11731;48.592;8.858;2023-03-01T12:52:47;6.70;92.20
23124;DHT22;11731;48.592;8.858;2023-03-01T12:55:25;6.90;92.00
23124;DHT22;11731;48.592;8.858;2023-03-01T12:58:01;6.70;92.60
23124;DHT22;11731;48.592;8.858;2023-03-01T13:00:35;6.40;92.50
23124;DHT22;11731;48.592;8.858;2023-03-01T13:03:14;6.50;92.80
23124;DHT22;11731;48.592;8.858;2023-03-01T13:06:00;6.50;92.50
23124;DHT22;11731;48.592;8.858;2023-03-01T13:08:35;6.70;92.60
23124;DHT22;11731;48.592;8.858;2023-03-01T13:11:05;6.80;92.20
23124;DHT22;11731;48.592;8.858;2023-03-01T13:13:38;7.00;91.60
23124;DHT22;11731;48.592;8.858;2023-03-01T13:19:10;6.70;92.20
23124;DHT22;11731;48.592;8.858;2023-03-01T13:21:42;6.70;92.40
23124;DHT22;11731;48.592;8.858;2023-03-01T13:24:27;6.90;92.00
23124;DHT22;11731;48.592;8.858;2023-03-01T13:27:10;6.90;91.90
23124;DHT22;11731;48.592;8.858;2023-03-01T13:29:49;6.80;92.00
23124;DHT22;11731;48.592;8.858;2023-03-01T13:32:25;6.80;92.20
23124;DHT22;11731;48.592;8.858;2023-03-01T13:34:58;7.00;92.00
23124;DHT22;11731;48.592;8.858;2023-03-01T13:37:30;7.20;91.60
23124;DHT22;11731;48.592;8.858;2023-03-01T13:40:00;7.30;91.50
23124;DHT22;11731;48.592;8.858;2023-03-01T13:42:42;7.30;91.40
23124;DHT22;11731;48.592;8.858;2023-03-01T13:45:20;7.20;91.80
23124;DHT22;11731;48.592;8.858;2023-03-01T13:47:52;7.10;91.60
23124;DHT22;11731;48.592;8.858;2023-03-01T13:50:22;7.10;91.60
23124;DHT22;11731;48.592;8.858;2023-03-01T13:52:53;7.30;91.40
23124;DHT22;11731;48.592;8.858;2023-03-01T13:55:30;7.80;91.00
23124;DHT22;11731;48.592;8.858;2023-03-01T13:58:02;7.60;90.90
23124;DHT22;11731;48.592;8.858;2023-03-01T14:00:34;7.50;91.20
23124;DHT22;11731;48.592;8.858;2023-03-01T14:03:10;7.50;91.10
23124;DHT22;11731;48.592;8.858;2023-03-01T14:05:38;7.40;91.30
23124;DHT22;11731;48.592;8.858;2023-03-01T14:08:17;7.40;91.40
23124;DHT22;11731;48.592;8.858;2023-03-01T14:10:52;7.60;91.20
23124;DHT22;11731;48.592;8.858;2023-03-01T14:13:31;7.80;91.00
23124;DHT22;11731;48.592;8.858;2023-03-01T14:16:14;8.00;90.60
23124;DHT22;11731;48.592;8.858;2023-03-01T14:18:49;7.70;90.90
23124;DHT22;11731;48.592;8.858;2023-03-01T14:21:19;7.70;91.30
23124;DHT22;11731;48.592;8.858;2023-03-01T14:23:46;7.80;91.30
23124;DHT22;11731;48.592;8.858;2023-03-01T14:26:13;7.90;90.90
23124;DHT22;11731;48.592;8.858;2023-03-01T14:28:46;7.80;90.80
23124;DHT22;11731;48.592;8.858;2023-03-01T14:31:36;7.90;91.00
23124;DHT22;11731;48.592;8.858;2023-03-01T14:34:04;7.80;91.00
23124;DHT22;11731;48.592;8.858;2023-03-01T14:36:33;7.80;91.40
23124;DHT22;11731;48.592;8.858;2023-03-01T14:39:01;7.90;91.00
23124;DHT22;11731;48.592;8.858;2023-03-01T14:41:33;7.70;91.20
23124;DHT22;11731;48.592;8.858;2023-03-01T14:44:03;7.90;91.20
23124;DHT22;11731;48.592;8.858;2023-03-01T14:46:35;7.90;91.10
23124;DHT22;11731;48.592;8.858;2023-03-01T14:49:05;8.00;91.50
23124;DHT22;11731;48.592;8.858;2023-03-01T14:51:36;7.90;91.50
23124;DHT22;11731;48.592;8.858;2023-03-01T14:54:11;7.70;91.60
23124;DHT22;11731;48.592;8.858;2023-03-01T14:56:46;7.30;92.20
23124;DHT22;11731;48.592;8.858;2023-03-01T14:59:13;7.30;92.40
23124;DHT22;11731;48.592;8.858;2023-03-01T15:01:42;7.40;92.30
23124;DHT22;11731;48.592;8.858;2023-03-01T15:04:12;7.70;92.60
23124;DHT22;11731;48.592;8.858;2023-03-01T15:06:43;7.50;92.20
23124;DHT22;11731;48.592;8.858;2023-03-01T15:09:14;7.30;92.90
23124;DHT22;11731;48.592;8.858;2023-03-01T15:11:45;7.40;92.80
23124;DHT22;11731;48.592;8.858;2023-03-01T15:14:40;7.50;92.30
23124;DHT22;11731;48.592;8.858;2023-03-01T15:17:20;7.50;92.50
23124;DHT22;11731;48.592;8.858;2023-03-01T15:19:49;7.60;92.70
23124;DHT22;11731;48.592;8.858;2023-03-01T15:22:17;7.40;92.40
23124;DHT22;11731;48.592;8.858;2023-03-01T15:24:47;7.40;91.90
23124;DHT22;11731;48.592;8.858;2023-03-01T15:27:16;7.50;91.90
23124;DHT22;11731;48.592;8.858;2023-03-01T15:29:48;7.50;91.80
23124;DHT22;11731;48.592;8.858;2023-03-01T15:32:27;7.40;91.80
23124;DHT22;11731;48.592;8.858;2023-03-01T15:34:54;7.70;91.80
23124;DHT22;11731;48.592;8.858;2023-03-01T15:37:39;7.90;91.40
23124;DHT22;11731;48.592;8.858;2023-03-01T15:40:18;7.90;91.60
23124;DHT22;11731;48.592;8.858;2023-03-01T15:42:45;7.80;91.80
23124;DHT22;11731;48.592;8.858;2023-03-01T15:45:22;7.60;91.40
23124;DHT22;11731;48.592;8.858;2023-03-01T15:47:52;7.50;91.80
23124;DHT22;11731;48.592;8.858;2023-03-01T15:50:23;7.50;92.00
23124;DHT22;11731;48.592;8.858;2023-03-01T15:52:51;7.50;92.10
23124;DHT22;11731;48.592;8.858;2023-03-01T15:55:19;7.40;92.20
23124;DHT22;11731;48.592;8.858;2023-03-01T15:57:48;7.40;92.40
23124;DHT22;11731;48.592;8.858;2023-03-01T16:00:17;7.30;92.30
23124;DHT22;11731;48.592;8.858;2023-03-01T16:02:44;7.40;92.50
23124;DHT22;11731;48.592;8.858;2023-03-01T16:05:29;7.30;92.40
23124;DHT22;11731;48.592;8.858;2023-03-01T16:08:05;7.20;93.00
23124;DHT22;11731;48.592;8.858;2023-03-01T16:10:33;7.20;93.30
23124;DHT22;11731;48.592;8.858;2023-03-01T16:13:00;6.90;93.20
23124;DHT22;11731;48.592;8.858;2023-03-01T16:15:28;6.80;93.40
23124;DHT22;11731;48.592;8.858;2023-03-01T16:17:55;6.70;93.60
23124;DHT22;11731;48.592;8.858;2023-03-01T16:20:27;6.50;93.70
23124;DHT22;11731;48.592;8.858;2023-03-01T16:22:59;6.60;94.10
23124;DHT22;11731;48.592;8.858;2023-03-01T16:25:30;6.60;94.00
23124;DHT22;11731;48.592;8.858;2023-03-01T16:27:59;6.70;93.80
23124;DHT22;11731;48.592;8.858;2023-03-01T16:30:30;6.60;93.40
23124;DHT22;11731;48.592;8.858;2023-03-01T16:32:57;6.60;93.50
23124;DHT22;11731;48.592;8.858;2023-03-01T16:35:26;6.60;93.60
23124;DHT22;11731;48.592;8.858;2023-03-01T16:37:54;6.60;93.80
23124;DHT22;11731;48.592;8.858;2023-03-01T16:40:23;6.40;93.70
23124;DHT22;11731;48.592;8.858;2023-03-01T16:42:51;6.10;94.00
23124;DHT22;11731;48.592;8.858;2023-03-01T16:45:19;6.00;94.20